sensor_id;sensor_type;location;lat;lon;timestamp;P1;P2;P0
67376;PMS7003;54261;46.086;6.588;2024-03-23T00:55:09;1.00;1.00;1.00
67376;PMS7003;54261;46.086;6.588;2024-03-23T01:00:10;2.00;2.00;2.00
67376;PMS7003;54261;46.086;6.588;2024-03-23T01:05:12;2.25;2.25;1.50
67376;PMS7003;54261;46.086;6.588;2024-03-23T01:10:13;3.00;2.75;2.00
67376;PMS7003;54261;46.086;6.588;2024-03-23T01:15:13;2.00;2.00;2.00
67376;PMS7003;54261;46.086;6.588;2024-03-23T01:20:14;3.00;3.00;2.00
67376;PMS7003;54261;46.086;6.588;2024-03-23T01:25:15;2.00;2.00;1.50
67376;PMS7003;54261;46.086;6.588;2024-03-23T01:30:16;2.50;2.50;1.75
67376;PMS7003;54261;46.086;6.588;2024-03-23T01:35:17;4.75;1.75;1.50
67376;PMS7003;54261;46.086;6.588;2024-03-23T01:40:18;3.00;3.00;2.00
67376;PMS7003;54261;46.086;6.588;2024-03-23T01:45:19;1.50;1.25;1.00
67376;PMS7003;54261;46.086;6.588;2024-03-23T01:50:20;1.00;1.00;1.00
67376;PMS7003;54261;46.086;6.588;2024-03-23T01:55:22;2.00;2.00;2.00
67376;PMS7003;54261;46.086;6.588;2024-03-23T02:00:23;2.50;1.50;1.50
67376;PMS7003;54261;46.086;6.588;2024-03-23T02:05:25;2.00;2.00;2.00
67376;PMS7003;54261;46.086;6.588;2024-03-23T02:10:25;2.00;2.00;2.00
67376;PMS7003;54261;46.086;6.588;2024-03-23T02:15:26;3.00;3.00;2.00
67376;PMS7003;54261;46.086;6.588;2024-03-23T02:20:27;2.00;2.00;1.75
67376;PMS7003;54261;46.086;6.588;2024-03-23T02:25:28;2.00;2.00;2.00
67376;PMS7003;54261;46.086;6.588;2024-03-23T02:30:29;2.50;2.50;2.25
67376;PMS7003;54261;46.086;6.588;2024-03-23T02:35:30;3.50;1.75;1.50
67376;PMS7003;54261;46.086;6.588;2024-03-23T02:40:31;2.75;2.75;2.25
67376;PMS7003;54261;46.086;6.588;2024-03-23T02:45:32;2.00;2.00;2.00
67376;PMS7003;54261;46.086;6.588;2024-03-23T02:50:33;0.25;0.25;0.00
67376;PMS7003;54261;46.086;6.588;2024-03-23T02:55:34;3.50;3.50;3.00
67376;PMS7003;54261;46.086;6.588;2024-03-23T03:00:35;3.50;3.25;2.25
67376;PMS7003;54261;46.086;6.588;2024-03-23T03:05:36;2.75;2.75;2.00
67376;PMS7003;54261;46.086;6.588;2024-03-23T03:10:36;3.00;3.00;2.00
67376;PMS7003;54261;46.086;6.588;2024-03-23T03:15:37;2.75;2.75;2.00
67376;PMS7003;54261;46.086;6.588;2024-03-23T03:20:40;1.50;1.50;1.00
67376;PMS7003;54261;46.086;6.588;2024-03-23T03:25:41;3.75;3.00;3.00
67376;PMS7003;54261;46.086;6.588;2024-03-23T03:30:42;0.50;0.50;0.00
67376;PMS7003;54261;46.086;6.588;2024-03-23T03:35:43;2.25;2.25;2.00
67376;PMS7003;54261;46.086;6.588;2024-03-23T03:40:44;3.75;3.00;2.00
67376;PMS7003;54261;46.086;6.588;2024-03-23T03:45:52;0.75;0.75;0.75
67376;PMS7003;54261;46.086;6.588;2024-03-23T03:50:53;2.25;2.00;2.00
67376;PMS7003;54261;46.086;6.588;2024-03-23T03:55:54;2.00;2.00;2.00
67376;PMS7003;54261;46.086;6.588;2024-03-23T04:00:55;2.25;2.25;2.00
67376;PMS7003;54261;46.086;6.588;2024-03-23T04:05:56;4.00;4.00;2.00
67376;PMS7003;54261;46.086;6.588;2024-03-23T04:10:57;3.75;2.75;2.00
67376;PMS7003;54261;46.086;6.588;2024-03-23T04:15:58;3.25;2.75;2.75
67376;PMS7003;54261;46.086;6.588;2024-03-23T04:20:59;2.00;2.00;2.00
67376;PMS7003;54261;46.086;6.588;2024-03-23T04:26:03;2.00;2.00;2.00
67376;PMS7003;54261;46.086;6.588;2024-03-23T04:31:05;2.75;2.75;2.50
67376;PMS7003;54261;46.086;6.588;2024-03-23T04:36:06;4.00;3.00;2.50
67376;PMS7003;54261;46.086;6.588;2024-03-23T04:41:07;3.00;3.00;3.00
67376;PMS7003;54261;46.086;6.588;2024-03-23T04:46:08;3.00;3.00;2.00
67376;PMS7003;54261;46.086;6.588;2024-03-23T04:51:10;3.00;1.75;1.50
67376;PMS7003;54261;46.086;6.588;2024-03-23T04:56:13;4.00;4.00;3.00
67376;PMS7003;54261;46.086;6.588;2024-03-23T05:01:14;4.00;2.50;2.00
67376;PMS7003;54261;46.086;6.588;2024-03-23T05:06:14;5.50;4.00;3.00
67376;PMS7003;54261;46.086;6.588;2024-03-23T05:11:15;5.50;5.50;3.50
67376;PMS7003;54261;46.086;6.588;2024-03-23T05:16:16;6.25;4.25;3.75
67376;PMS7003;54261;46.086;6.588;2024-03-23T05:21:17;7.50;5.25;3.50
67376;PMS7003;54261;46.086;6.588;2024-03-23T05:26:18;6.00;6.00;6.00
67376;PMS7003;54261;46.086;6.588;2024-03-23T05:31:29;7.75;7.75;5.25
67376;PMS7003;54261;46.086;6.588;2024-03-23T05:36:30;8.25;8.00;6.00
67376;PMS7003;54261;46.086;6.588;2024-03-23T05:41:33;8.50;8.50;5.25
67376;PMS7003;54261;46.086;6.588;2024-03-23T05:46:36;7.00;7.00;5.25
67376;PMS7003;54261;46.086;6.588;2024-03-23T05:51:37;7.00;7.00;5.25
67376;PMS7003;54261;46.086;6.588;2024-03-23T05:56:38;4.00;4.00;3.25
67376;PMS7003;54261;46.086;6.588;2024-03-23T06:01:39;7.50;5.50;4.00
67376;PMS7003;54261;46.086;6.588;2024-03-23T06:06:40;7.75;5.50;4.00
67376;PMS7003;54261;46.086;6.588;2024-03-23T06:11:41;7.00;7.00;5.25
67376;PMS7003;54261;46.086;6.588;2024-03-23T06:16:42;6.25;6.25;4.25
67376;PMS7003;54261;46.086;6.588;2024-03-23T06:21:43;5.00;4.00;4.00
67376;PMS7003;54261;46.086;6.588;2024-03-23T06:26:44;9.00;8.00;6.75
67376;PMS7003;54261;46.086;6.588;2024-03-23T06:31:53;8.75;8.75;7.75
67376;PMS7003;54261;46.086;6.588;2024-03-23T06:36:55;7.00;7.00;6.00
67376;PMS7003;54261;46.086;6.588;2024-03-23T06:41:56;16.25;15.00;11.25
67376;PMS7003;54261;46.086;6.588;2024-03-23T06:46:57;19.75;19.25;14.25
67376;PMS7003;54261;46.086;6.588;2024-03-23T06:51:58;18.75;18.75;14.25
67376;PMS7003;54261;46.086;6.588;2024-03-23T06:56:59;21.00;19.50;14.25
67376;PMS7003;54261;46.086;6.588;2024-03-23T07:02:00;28.00;24.75;17.50
67376;PMS7003;54261;46.086;6.588;2024-03-23T07:07:01;27.25;25.25;19.50
67376;PMS7003;54261;46.086;6.588;2024-03-23T07:12:03;19.50;17.50;12.25
67376;PMS7003;54261;46.086;6.588;2024-03-23T07:17:05;19.00;19.00;15.00
67376;PMS7003;54261;46.086;6.588;2024-03-23T07:22:06;24.75;20.75;16.75
67376;PMS7003;54261;46.086;6.588;2024-03-23T07:27:07;22.25;18.75;11.75
67376;PMS7003;54261;46.086;6.588;2024-03-23T07:32:10;26.75;21.25;17.00
67376;PMS7003;54261;46.086;6.588;2024-03-23T07:37:12;22.50;22.25;17.75
67376;PMS7003;54261;46.086;6.588;2024-03-23T07:42:13;17.50;16.00;12.50
67376;PMS7003;54261;46.086;6.588;2024-03-23T07:47:15;28.25;22.50;15.50
67376;PMS7003;54261;46.086;6.588;2024-03-23T07:52:16;18.75;17.75;13.50
67376;PMS7003;54261;46.086;6.588;2024-03-23T07:57:17;17.00;16.00;13.25
67376;PMS7003;54261;46.086;6.588;2024-03-23T08:02:18;15.75;15.50;11.00
67376;PMS7003;54261;46.086;6.588;2024-03-23T08:07:19;17.25;17.25;14.00
67376;PMS7003;54261;46.086;6.588;2024-03-23T08:12:20;13.25;12.00;9.50
67376;PMS7003;54261;46.086;6.588;2024-03-23T08:17:21;13.50;10.50;8.75
67376;PMS7003;54261;46.086;6.588;2024-03-23T08:22:22;10.75;9.50;7.00
67376;PMS7003;54261;46.086;6.588;2024-03-23T08:27:23;8.75;8.75;6.00
67376;PMS7003;54261;46.086;6.588;2024-03-23T08:32:24;13.00;11.00;8.00
67376;PMS7003;54261;46.086;6.588;2024-03-23T08:37:25;10.00;10.00;9.75
67376;PMS7003;54261;46.086;6.588;2024-03-23T08:42:26;4.25;4.25;4.25
67376;PMS7003;54261;46.086;6.588;2024-03-23T08:47:27;3.00;3.00;2.00
67376;PMS7003;54261;46.086;6.588;2024-03-23T08:52:28;4.00;4.00;2.50
67376;PMS7003;54261;46.086;6.588;2024-03-23T08:57:30;1.00;1.00;1.00
67376;PMS7003;54261;46.086;6.588;2024-03-23T09:02:31;1.00;1.00;0.00
67376;PMS7003;54261;46.086;6.588;2024-03-23T09:07:32;0.00;0.00;0.00
67376;PMS7003;54261;46.086;6.588;2024-03-23T09:12:33;0.00;0.00;0.00
67376;PMS7003;54261;46.086;6.588;2024-03-23T09:17:34;0.00;0.00;0.00
67376;PMS7003;54261;46.086;6.588;2024-03-23T09:22:34;0.00;0.00;0.00
67376;PMS7003;54261;46.086;6.588;2024-03-23T09:27:35;0.00;0.00;0.00
67376;PMS7003;54261;46.086;6.588;2024-03-23T09:32:36;1.00;1.00;1.00
67376;PMS7003;54261;46.086;6.588;2024-03-23T09:37:40;1.00;1.00;1.00
67376;PMS7003;54261;46.086;6.588;2024-03-23T09:42:41;0.50;0.00;0.00
67376;PMS7003;54261;46.086;6.588;2024-03-23T09:47:48;6.25;6.25;3.25
67376;PMS7003;54261;46.086;6.588;2024-03-23T09:52:51;0.00;0.00;0.00
67376;PMS7003;54261;46.086;6.588;2024-03-23T09:57:52;1.00;1.00;1.00
67376;PMS7003;54261;46.086;6.588;2024-03-23T10:02:56;0.00;0.00;0.00
67376;PMS7003;54261;46.086;6.588;2024-03-23T10:08:17;1.00;1.00;1.00
67376;PMS7003;54261;46.086;6.588;2024-03-23T10:13:29;1.00;1.00;0.50
67376;PMS7003;54261;46.086;6.588;2024-03-23T10:18:30;0.00;0.00;0.00
67376;PMS7003;54261;46.086;6.588;2024-03-23T10:23:33;0.00;0.00;0.00
67376;PMS7003;54261;46.086;6.588;2024-03-23T10:28:34;1.00;1.00;0.75
67376;PMS7003;54261;46.086;6.588;2024-03-23T10:33:35;0.75;0.75;0.00
67376;PMS7003;54261;46.086;6.588;2024-03-23T10:38:36;1.00;1.00;0.25
67376;PMS7003;54261;46.086;6.588;2024-03-23T10:43:38;0.00;0.00;0.00
67376;PMS7003;54261;46.086;6.588;2024-03-23T10:48:39;0.00;0.00;0.00
67376;PMS7003;54261;46.086;6.588;2024-03-23T10:53:41;0.00;0.00;0.00
67376;PMS7003;54261;46.086;6.588;2024-03-23T10:58:44;0.00;0.00;0.00
67376;PMS7003;54261;46.086;6.588;2024-03-23T11:03:51;0.00;0.00;0.00
67376;PMS7003;54261;46.086;6.588;2024-03-23T11:08:52;0.00;0.00;0.00
67376;PMS7003;54261;46.086;6.588;2024-03-23T11:13:53;2.00;1.00;0.00
67376;PMS7003;54261;46.086;6.588;2024-03-23T11:19:33;1.00;1.00;0.00
67376;PMS7003;54261;46.086;6.588;2024-03-23T11:24:34;0.75;0.75;0.50
67376;PMS7003;54261;46.086;6.588;2024-03-23T11:29:35;0.00;0.00;0.00
67376;PMS7003;54261;46.086;6.588;2024-03-23T11:34:36;0.75;0.75;0.00
67376;PMS7003;54261;46.086;6.588;2024-03-23T11:39:37;0.50;0.50;0.50
67376;PMS7003;54261;46.086;6.588;2024-03-23T11:44:38;1.25;1.00;0.50
67376;PMS7003;54261;46.086;6.588;2024-03-23T11:49:39;11.00;8.00;6.00
67376;PMS7003;54261;46.086;6.588;2024-03-23T11:54:41;0.25;0.25;0.00
67376;PMS7003;54261;46.086;6.588;2024-03-23T11:59:42;1.00;1.00;0.00
67376;PMS7003;54261;46.086;6.588;2024-03-23T12:04:44;2.50;1.00;1.00
67376;PMS7003;54261;46.086;6.588;2024-03-23T12:09:46;0.25;0.25;0.00
67376;PMS7003;54261;46.086;6.588;2024-03-23T12:20:05;1.75;1.75;1.00
67376;PMS7003;54261;46.086;6.588;2024-03-23T12:25:07;2.00;2.00;1.00
67376;PMS7003;54261;46.086;6.588;2024-03-23T12:30:08;2.25;1.00;0.25
67376;PMS7003;54261;46.086;6.588;2024-03-23T12:35:10;0.00;0.00;0.00
67376;PMS7003;54261;46.086;6.588;2024-03-23T12:40:11;1.25;1.00;1.00
67376;PMS7003;54261;46.086;6.588;2024-03-23T12:45:12;1.00;1.00;0.00
67376;PMS7003;54261;46.086;6.588;2024-03-23T12:50:13;2.50;1.00;0.00
67376;PMS7003;54261;46.086;6.588;2024-03-23T12:55:14;0.00;0.00;0.00
67376;PMS7003;54261;46.086;6.588;2024-03-23T13:00:15;1.50;1.00;0.00
67376;PMS7003;54261;46.086;6.588;2024-03-23T13:05:17;1.00;1.00;0.75
67376;PMS7003;54261;46.086;6.588;2024-03-23T13:10:18;0.00;0.00;0.00
67376;PMS7003;54261;46.086;6.588;2024-03-23T13:15:19;1.00;1.00;1.00
67376;PMS7003;54261;46.086;6.588;2024-03-23T13:20:21;0.00;0.00;0.00
67376;PMS7003;54261;46.086;6.588;2024-03-23T13:25:22;0.00;0.00;0.00
67376;PMS7003;54261;46.086;6.588;2024-03-23T13:30:23;0.25;0.00;0.00
67376;PMS7003;54261;46.086;6.588;2024-03-23T13:35:23;1.00;1.00;0.00
67376;PMS7003;54261;46.086;6.588;2024-03-23T13:40:24;0.00;0.00;0.00
67376;PMS7003;54261;46.086;6.588;2024-03-23T13:45:25;0.00;0.00;0.00
67376;PMS7003;54261;46.086;6.588;2024-03-23T13:50:27;0.75;0.00;0.00
67376;PMS7003;54261;46.086;6.588;2024-03-23T13:55:28;0.00;0.00;0.00
67376;PMS7003;54261;46.086;6.588;2024-03-23T14:00:29;0.00;0.00;0.00
67376;PMS7003;54261;46.086;6.588;2024-03-23T14:05:30;0.75;0.00;0.00
67376;PMS7003;54261;46.086;6.588;2024-03-23T14:10:31;0.75;0.75;0.00
67376;PMS7003;54261;46.086;6.588;2024-03-23T14:15:32;0.25;0.25;0.25
67376;PMS7003;54261;46.086;6.588;2024-03-23T14:20:33;1.75;0.00;0.00
67376;PMS7003;54261;46.086;6.588;2024-03-23T14:25:34;0.00;0.00;0.00
67376;PMS7003;54261;46.086;6.588;2024-03-23T14:30:35;0.00;0.00;0.00
67376;PMS7003;54261;46.086;6.588;2024-03-23T14:35:36;1.00;1.00;0.00
67376;PMS7003;54261;46.086;6.588;2024-03-23T14:40:37;3.00;2.00;0.75
67376;PMS7003;54261;46.086;6.588;2024-03-23T14:45:38;0.00;0.00;0.00
67376;PMS7003;54261;46.086;6.588;2024-03-23T14:51:06;1.25;1.25;0.25
67376;PMS7003;54261;46.086;6.588;2024-03-23T14:56:09;0.00;0.00;0.00
67376;PMS7003;54261;46.086;6.588;2024-03-23T15:01:13;2.25;1.50;0.25
67376;PMS7003;54261;46.086;6.588;2024-03-23T15:06:13;1.00;1.00;0.75
67376;PMS7003;54261;46.086;6.588;2024-03-23T15:11:15;0.00;0.00;0.00
67376;PMS7003;54261;46.086;6.588;2024-03-23T15:16:19;2.00;1.00;0.75
67376;PMS7003;54261;46.086;6.588;2024-03-23T15:21:20;1.75;1.75;1.00
67376;PMS7003;54261;46.086;6.588;2024-03-23T15:26:22;1.00;0.00;0.00
67376;PMS7003;54261;46.086;6.588;2024-03-23T15:31:23;4.50;2.50;1.00
67376;PMS7003;54261;46.086;6.588;2024-03-23T15:36:24;3.00;1.00;0.00
67376;PMS7003;54261;46.086;6.588;2024-03-23T15:41:25;0.25;0.25;0.00
67376;PMS7003;54261;46.086;6.588;2024-03-23T15:46:26;0.75;0.25;0.00
67376;PMS7003;54261;46.086;6.588;2024-03-23T15:51:27;1.00;0.00;0.00
67376;PMS7003;54261;46.086;6.588;2024-03-23T15:56:33;1.00;1.00;0.00
67376;PMS7003;54261;46.086;6.588;2024-03-23T16:01:34;0.50;0.50;0.00
67376;PMS7003;54261;46.086;6.588;2024-03-23T16:06:35;3.25;2.00;2.00
67376;PMS7003;54261;46.086;6.588;2024-03-23T16:11:36;1.50;1.00;1.00
67376;PMS7003;54261;46.086;6.588;2024-03-23T16:16:37;0.00;0.00;0.00
67376;PMS7003;54261;46.086;6.588;2024-03-23T16:21:38;1.00;1.00;1.00
67376;PMS7003;54261;46.086;6.588;2024-03-23T16:26:39;0.25;0.25;0.00
67376;PMS7003;54261;46.086;6.588;2024-03-23T16:31:40;0.00;0.00;0.00
67376;PMS7003;54261;46.086;6.588;2024-03-23T16:36:41;0.00;0.00;0.00
67376;PMS7003;54261;46.086;6.588;2024-03-23T16:41:42;0.50;0.50;0.00
67376;PMS7003;54261;46.086;6.588;2024-03-23T16:46:43;0.25;0.00;0.00
67376;PMS7003;54261;46.086;6.588;2024-03-23T16:51:44;1.25;1.25;0.25
67376;PMS7003;54261;46.086;6.588;2024-03-23T16:56:45;0.00;0.00;0.00
67376;PMS7003;54261;46.086;6.588;2024-03-23T17:01:46;0.75;0.75;0.00
67376;PMS7003;54261;46.086;6.588;2024-03-23T17:06:47;0.50;0.50;0.00
67376;PMS7003;54261;46.086;6.588;2024-03-23T17:11:48;1.00;1.00;0.00
67376;PMS7003;54261;46.086;6.588;2024-03-23T17:16:51;2.25;2.25;1.00
67376;PMS7003;54261;46.086;6.588;2024-03-23T17:21:52;1.25;0.25;0.25
67376;PMS7003;54261;46.086;6.588;2024-03-23T17:26:54;2.00;0.25;0.00
67376;PMS7003;54261;46.086;6.588;2024-03-23T17:31:55;0.00;0.00;0.00
67376;PMS7003;54261;46.086;6.588;2024-03-23T17:36:55;1.00;1.00;0.00
67376;PMS7003;54261;46.086;6.588;2024-03-23T17:41:56;0.50;0.50;0.00
67376;PMS7003;54261;46.086;6.588;2024-03-23T17:46:58;0.00;0.00;0.00
67376;PMS7003;54261;46.086;6.588;2024-03-23T17:52:00;2.00;2.00;1.00
67376;PMS7003;54261;46.086;6.588;2024-03-23T17:57:08;2.00;0.50;0.00
67376;PMS7003;54261;46.086;6.588;2024-03-23T18:02:09;0.50;0.00;0.00
67376;PMS7003;54261;46.086;6.588;2024-03-23T18:07:10;1.00;1.00;0.00
67376;PMS7003;54261;46.086;6.588;2024-03-23T18:12:11;0.00;0.00;0.00
67376;PMS7003;54261;46.086;6.588;2024-03-23T18:17:12;3.25;1.50;1.00
67376;PMS7003;54261;46.086;6.588;2024-03-23T18:22:14;13.25;10.00;5.00
67376;PMS7003;54261;46.086;6.588;2024-03-23T18:27:15;1.00;1.00;0.50
67376;PMS7003;54261;46.086;6.588;2024-03-23T18:32:16;1.25;1.25;1.00
67376;PMS7003;54261;46.086;6.588;2024-03-23T18:37:17;0.25;0.25;0.25
67376;PMS7003;54261;46.086;6.588;2024-03-23T18:42:18;2.25;1.75;1.00
67376;PMS7003;54261;46.086;6.588;2024-03-23T18:47:19;4.00;2.50;1.50
67376;PMS7003;54261;46.086;6.588;2024-03-23T18:52:22;0.75;0.75;0.00
67376;PMS7003;54261;46.086;6.588;2024-03-23T18:57:23;1.00;1.00;0.00
67376;PMS7003;54261;46.086;6.588;2024-03-23T19:02:24;0.75;0.75;0.00
67376;PMS7003;54261;46.086;6.588;2024-03-23T19:07:25;2.00;1.00;0.00
67376;PMS7003;54261;46.086;6.588;2024-03-23T19:12:26;1.00;0.00;0.00
67376;PMS7003;54261;46.086;6.588;2024-03-23T19:17:27;1.00;1.00;0.00
67376;PMS7003;54261;46.086;6.588;2024-03-23T19:22:29;1.00;1.00;0.00
67376;PMS7003;54261;46.086;6.588;2024-03-23T19:27:30;3.25;3.25;2.25
67376;PMS7003;54261;46.086;6.588;2024-03-23T19:32:31;0.25;0.25;0.00
67376;PMS7003;54261;46.086;6.588;2024-03-23T19:37:32;1.50;1.50;1.25
67376;PMS7003;54261;46.086;6.588;2024-03-23T19:42:33;1.00;1.00;0.50
67376;PMS7003;54261;46.086;6.588;2024-03-23T19:47:34;0.00;0.00;0.00
67376;PMS7003;54261;46.086;6.588;2024-03-23T19:52:35;2.00;1.00;0.00
67376;PMS7003;54261;46.086;6.588;2024-03-23T19:57:36;2.00;1.75;0.75
67376;PMS7003;54261;46.086;6.588;2024-03-23T20:02:37;0.75;0.75;0.75
67376;PMS7003;54261;46.086;6.588;2024-03-23T20:07:38;1.00;1.00;1.00
67376;PMS7003;54261;46.086;6.588;2024-03-23T20:12:39;0.50;0.50;0.00
67376;PMS7003;54261;46.086;6.588;2024-03-23T20:17:40;0.25;0.25;0.00
67376;PMS7003;54261;46.086;6.588;2024-03-23T20:22:41;3.75;1.50;0.75
67376;PMS7003;54261;46.086;6.588;2024-03-23T20:27:42;1.00;1.00;1.00
67376;PMS7003;54261;46.086;6.588;2024-03-23T20:32:43;1.00;1.00;0.75
67376;PMS7003;54261;46.086;6.588;2024-03-23T20:37:44;1.00;1.00;0.50
67376;PMS7003;54261;46.086;6.588;2024-03-23T20:42:44;1.00;1.00;1.00
67376;PMS7003;54261;46.086;6.588;2024-03-23T20:47:45;2.50;1.00;0.75
67376;PMS7003;54261;46.086;6.588;2024-03-23T20:52:46;0.00;0.00;0.00
67376;PMS7003;54261;46.086;6.588;2024-03-23T20:57:47;0.00;0.00;0.00
67376;PMS7003;54261;46.086;6.588;2024-03-23T21:02:48;1.00;1.00;1.00
67376;PMS7003;54261;46.086;6.588;2024-03-23T21:07:49;0.00;0.00;0.00
67376;PMS7003;54261;46.086;6.588;2024-03-23T21:12:50;1.75;1.00;1.00
67376;PMS7003;54261;46.086;6.588;2024-03-23T21:17:51;1.00;0.00;0.00
67376;PMS7003;54261;46.086;6.588;2024-03-23T21:22:52;2.25;1.75;1.00
67376;PMS7003;54261;46.086;6.588;2024-03-23T21:27:53;4.00;4.00;2.25
67376;PMS7003;54261;46.086;6.588;2024-03-23T21:32:54;8.00;7.25;3.25
67376;PMS7003;54261;46.086;6.588;2024-03-23T21:37:55;1.25;1.25;0.00
67376;PMS7003;54261;46.086;6.588;2024-03-23T21:42:56;13.00;8.25;6.75
67376;PMS7003;54261;46.086;6.588;2024-03-23T21:47:56;10.50;6.00;5.00
67376;PMS7003;54261;46.086;6.588;2024-03-23T21:52:57;0.00;0.00;0.00
67376;PMS7003;54261;46.086;6.588;2024-03-23T21:57:58;0.25;0.25;0.00
67376;PMS7003;54261;46.086;6.588;2024-03-23T22:02:59;0.00;0.00;0.00
67376;PMS7003;54261;46.086;6.588;2024-03-23T22:08:00;0.00;0.00;0.00
67376;PMS7003;54261;46.086;6.588;2024-03-23T22:13:01;1.00;0.75;0.25
67376;PMS7003;54261;46.086;6.588;2024-03-23T22:18:02;1.00;1.00;0.00
67376;PMS7003;54261;46.086;6.588;2024-03-23T22:23:04;1.50;0.75;0.50
67376;PMS7003;54261;46.086;6.588;2024-03-23T22:28:05;5.00;1.25;1.00
67376;PMS7003;54261;46.086;6.588;2024-03-23T22:33:06;1.00;1.00;1.00
67376;PMS7003;54261;46.086;6.588;2024-03-23T22:38:09;8.75;6.50;5.25
67376;PMS7003;54261;46.086;6.588;2024-03-23T22:43:10;1.50;1.50;1.00
67376;PMS7003;54261;46.086;6.588;2024-03-23T22:48:11;2.00;2.00;1.00
67376;PMS7003;54261;46.086;6.588;2024-03-23T22:53:12;0.00;0.00;0.00
67376;PMS7003;54261;46.086;6.588;2024-03-23T22:58:13;0.00;0.00;0.00
67376;PMS7003;54261;46.086;6.588;2024-03-23T23:03:14;0.25;0.25;0.00
67376;PMS7003;54261;46.086;6.588;2024-03-23T23:08:16;1.00;1.00;0.50
67376;PMS7003;54261;46.086;6.588;2024-03-23T23:13:17;0.00;0.00;0.00
67376;PMS7003;54261;46.086;6.588;2024-03-23T23:18:17;0.50;0.00;0.00
67376;PMS7003;54261;46.086;6.588;2024-03-23T23:23:18;0.25;0.00;0.00
67376;PMS7003;54261;46.086;6.588;2024-03-23T23:28:20;0.00;0.00;0.00
67376;PMS7003;54261;46.086;6.588;2024-03-23T23:33:21;1.00;1.00;0.00
67376;PMS7003;54261;46.086;6.588;2024-03-23T23:38:22;0.00;0.00;0.00
67376;PMS7003;54261;46.086;6.588;2024-03-23T23:43:24;0.00;0.00;0.00
67376;PMS7003;54261;46.086;6.588;2024-03-23T23:48:25;0.75;0.00;0.00
67376;PMS7003;54261;46.086;6.588;2024-03-23T23:53:26;0.00;0.00;0.00
67376;PMS7003;54261;46.086;6.588;2024-03-23T23:58:27;1.00;1.00;1.00
